Time;durP1;ratioP1;P1;durP2;ratioP2;P2;SDS_P1;SDS_P2;PMS_P1;PMS_P2;Temp;Humidity;BMP_temperature;BMP_pressure;BME280_temperature;BME280_humidity;BME280_pressure;Samples;Min_cycle;Max_cycle;Signal;HPM_P1;HPM_P2
2022/01/12 00:00:29;;;;;;;58.90;25.30;;;0.10;99.90;;;;;;5029489;28;20046;-67
2022/01/12 00:02:57;;;;;;;66.05;24.52;;;0.00;99.90;;;;;;5043648;28;20052;-67
2022/01/12 00:05:25;;;;;;;60.53;23.45;;;0.10;99.90;;;;;;5017916;28;20437;-66
2022/01/12 00:07:53;;;;;;;57.97;24.17;;;0.10;99.90;;;;;;5029436;28;20048;-66
2022/01/12 00:10:21;;;;;;;61.22;23.95;;;0.10;99.90;;;;;;5027186;28;20042;-65
2022/01/12 00:12:48;;;;;;;60.35;24.05;;;0.10;99.90;;;;;;5028456;28;20069;-66
2022/01/12 00:15:16;;;;;;;54.90;24.90;;;0.10;99.90;;;;;;5028614;28;20620;-66
2022/01/12 00:17:44;;;;;;;55.42;23.23;;;0.10;99.90;;;;;;5027933;28;20038;-66
2022/01/12 00:20:12;;;;;;;53.70;23.17;;;0.10;99.90;;;;;;5023624;28;20049;-66
2022/01/12 00:22:41;;;;;;;62.35;23.83;;;0.10;99.90;;;;;;5028096;28;20205;-66
2022/01/12 00:33:15;;;;;;;54.72;23.70;;;0.00;99.90;;;;;;5007944;28;20885;-66
2022/01/12 00:35:52;;;;;;;51.50;23.40;;;0.00;99.90;;;;;;5024726;28;20362;-66
2022/01/12 00:38:23;;;;;;;56.25;24.90;;;0.10;99.90;;;;;;5026970;28;20041;-66
2022/01/12 00:40:53;;;;;;;57.42;24.75;;;0.00;99.90;;;;;;5027029;28;20050;-66
2022/01/12 00:43:26;;;;;;;55.05;24.23;;;0.00;99.90;;;;;;5039838;28;20595;-66
2022/01/12 00:45:54;;;;;;;62.90;25.13;;;0.00;99.90;;;;;;5026953;28;20041;-65
2022/01/12 00:48:22;;;;;;;52.08;23.30;;;0.10;99.90;;;;;;5024771;28;20056;-67
2022/01/12 00:50:50;;;;;;;61.40;23.85;;;0.00;99.90;;;;;;5026766;28;20412;-66
2022/01/12 00:53:18;;;;;;;54.13;23.42;;;0.00;99.90;;;;;;5027365;28;20433;-66
2022/01/12 00:55:46;;;;;;;63.22;23.67;;;0.00;99.90;;;;;;5010711;28;20056;-66
2022/01/12 00:58:14;;;;;;;61.03;25.63;;;0.00;99.90;;;;;;5025663;28;20378;-66
2022/01/12 01:00:42;;;;;;;62.55;26.13;;;0.00;99.90;;;;;;5027096;28;20037;-67
2022/01/12 01:03:10;;;;;;;54.60;24.80;;;0.00;99.90;;;;;;5023614;28;20049;-66
2022/01/12 01:05:39;;;;;;;50.72;22.73;;;0.00;99.90;;;;;;5019641;28;20065;-65
2022/01/12 01:08:07;;;;;;;50.00;23.73;;;0.00;99.90;;;;;;5008365;28;20075;-66
2022/01/12 01:10:46;;;;;;;61.03;25.17;;;-0.10;99.90;;;;;;5027777;28;20080;-65
2022/01/12 01:13:24;;;;;;;53.42;23.15;;;0.00;99.90;;;;;;5025354;28;20049;-67
2022/01/12 01:26:50;;;;;;;55.17;23.30;;;-0.10;99.90;;;;;;5046352;28;20299;-67
2022/01/12 01:29:18;;;;;;;62.90;23.42;;;-0.20;99.90;;;;;;5025116;28;20041;-67
2022/01/12 01:31:47;;;;;;;52.47;22.27;;;-0.20;99.90;;;;;;5026446;28;20057;-67
2022/01/12 01:34:16;;;;;;;55.38;23.75;;;-0.20;99.90;;;;;;5025745;28;20050;-67
2022/01/12 01:36:51;;;;;;;56.70;23.67;;;-0.20;99.90;;;;;;5007789;28;20533;-67
2022/01/12 01:39:23;;;;;;;50.30;23.20;;;-0.30;99.90;;;;;;5021456;28;20378;-67
2022/01/12 01:41:55;;;;;;;50.25;22.85;;;-0.20;99.90;;;;;;5009406;28;20496;-67
2022/01/12 01:55:13;;;;;;;46.40;18.08;;;-0.20;99.90;;;;;;5009831;28;20409;-66
2022/01/12 01:57:42;;;;;;;47.20;21.23;;;-0.20;99.90;;;;;;5021364;28;20742;-67
2022/01/12 02:00:13;;;;;;;49.58;20.48;;;-0.20;99.90;;;;;;5024892;28;20033;-68
2022/01/12 02:02:53;;;;;;;52.60;20.70;;;-0.20;99.90;;;;;;5026864;28;20052;-67
2022/01/12 02:05:26;;;;;;;46.88;20.63;;;-0.20;99.90;;;;;;5025399;28;20225;-68
2022/01/12 02:07:55;;;;;;;46.17;21.25;;;-0.20;99.90;;;;;;5025893;28;20060;-66
2022/01/12 02:10:26;;;;;;;54.40;24.02;;;-0.20;99.90;;;;;;5025963;28;20068;-67
2022/01/12 02:12:55;;;;;;;55.20;23.73;;;-0.30;99.90;;;;;;5025710;28;20052;-66
2022/01/12 02:15:25;;;;;;;58.33;25.95;;;-0.30;99.90;;;;;;5026453;28;20049;-67
2022/01/12 02:40:32;;;;;;;56.20;24.05;;;-0.30;99.90;;;;;;5030646;28;20513;-66
2022/01/12 02:53:40;;;;;;;57.63;27.60;;;-0.40;99.90;;;;;;5028085;28;20045;-66
2022/01/12 02:56:15;;;;;;;64.20;26.58;;;-0.40;99.90;;;;;;5047419;28;20508;-66
2022/01/12 02:58:45;;;;;;;50.90;24.05;;;-0.40;99.90;;;;;;5044695;28;20056;-67
2022/01/12 03:04:08;;;;;;;55.38;24.88;;;-0.40;99.90;;;;;;5032013;28;20493;-66
2022/01/12 03:06:39;;;;;;;50.28;23.58;;;-0.40;99.90;;;;;;5029117;28;20056;-66
2022/01/12 03:09:11;;;;;;;55.40;24.75;;;-0.40;99.90;;;;;;5032603;28;20037;-67
2022/01/12 03:11:39;;;;;;;61.30;27.33;;;-0.40;99.90;;;;;;5012183;28;20052;-67
2022/01/12 03:14:15;;;;;;;54.92;24.92;;;-0.40;99.90;;;;;;5032015;28;20033;-66
2022/01/12 03:16:43;;;;;;;64.05;25.08;;;-0.40;99.90;;;;;;5032232;28;20057;-66
2022/01/12 03:19:18;;;;;;;54.45;23.80;;;-0.40;99.90;;;;;;5031999;28;20034;-66
2022/01/12 03:21:45;;;;;;;59.00;24.83;;;-0.50;99.90;;;;;;5032434;28;20501;-66
2022/01/12 03:24:15;;;;;;;52.45;26.42;;;-0.50;99.90;;;;;;5015841;28;20048;-66
2022/01/12 03:26:44;;;;;;;53.53;24.60;;;-0.50;99.90;;;;;;5031108;28;20042;-68
2022/01/12 03:29:17;;;;;;;56.38;24.90;;;-0.50;99.90;;;;;;5032809;28;20049;-66
2022/01/12 03:31:44;;;;;;;53.03;24.80;;;-0.50;99.90;;;;;;5032936;28;20063;-66
2022/01/12 03:34:29;;;;;;;63.45;24.30;;;-0.50;99.90;;;;;;5031462;28;20040;-67
2022/01/12 03:37:38;;;;;;;58.42;24.10;;;-0.50;99.90;;;;;;5030932;28;20049;-67
2022/01/12 03:40:06;;;;;;;54.60;24.10;;;-0.50;99.90;;;;;;5029544;28;20048;-66
2022/01/12 03:42:35;;;;;;;56.92;25.58;;;-0.60;99.90;;;;;;5030029;28;20048;-65
2022/01/12 03:45:03;;;;;;;58.97;27.33;;;-0.60;99.90;;;;;;5012306;28;20053;-67
2022/01/12 03:47:31;;;;;;;53.00;24.70;;;-0.60;99.90;;;;;;5015198;28;20068;-66
2022/01/12 03:50:00;;;;;;;46.67;21.88;;;-0.60;99.90;;;;;;5031618;28;20535;-66
2022/01/12 03:52:28;;;;;;;47.40;22.10;;;-0.60;99.90;;;;;;5015087;28;20045;-67
2022/01/12 03:54:56;;;;;;;56.95;24.90;;;-0.60;99.90;;;;;;5014429;28;20493;-66
2022/01/12 03:57:24;;;;;;;49.63;23.00;;;-0.60;99.90;;;;;;5032730;28;20441;-66
2022/01/12 03:59:51;;;;;;;48.83;22.27;;;-0.60;99.90;;;;;;5030855;28;20037;-66
2022/01/12 04:02:19;;;;;;;58.47;23.10;;;-0.70;99.90;;;;;;5031507;28;20042;-66
2022/01/12 04:10:29;;;;;;;59.90;23.45;;;-0.70;99.90;;;;;;5029300;28;20659;-66
2022/01/12 04:12:57;;;;;;;55.95;22.90;;;-0.70;99.90;;;;;;5032129;28;20053;-66
2022/01/12 04:15:25;;;;;;;51.17;23.20;;;-0.70;99.90;;;;;;5001224;28;20052;-66
2022/01/12 04:17:52;;;;;;;53.25;23.33;;;-0.70;99.90;;;;;;5031307;28;20049;-67
2022/01/12 04:20:20;;;;;;;55.85;24.52;;;-0.70;99.90;;;;;;5003333;28;20433;-67
2022/01/12 04:25:34;;;;;;;46.38;21.58;;;-0.70;99.90;;;;;;5030226;28;20037;-67
2022/01/12 04:28:02;;;;;;;44.58;21.92;;;-0.70;99.90;;;;;;5047139;28;20041;-66
2022/01/12 04:30:29;;;;;;;49.63;21.92;;;-0.80;99.90;;;;;;5031807;28;20568;-66
2022/01/12 04:32:57;;;;;;;49.63;21.15;;;-0.80;99.90;;;;;;5031226;28;20401;-66
2022/01/12 04:35:30;;;;;;;49.85;20.52;;;-0.80;99.90;;;;;;5030250;28;20037;-66
2022/01/12 04:37:58;;;;;;;52.05;21.75;;;-0.80;99.90;;;;;;5030804;28;20045;-66
2022/01/12 04:40:26;;;;;;;47.53;21.33;;;-0.80;99.90;;;;;;5029531;28;20477;-66
2022/01/12 04:42:55;;;;;;;51.95;21.15;;;-0.80;99.90;;;;;;5031181;28;20049;-66
2022/01/12 04:50:25;;;;;;;47.83;19.65;;;-0.80;99.90;;;;;;5033271;28;20053;-67
2022/01/12 04:52:53;;;;;;;41.58;19.05;;;-0.80;99.90;;;;;;5066559;28;20057;-67
2022/01/12 04:55:21;;;;;;;47.17;21.00;;;-0.80;99.90;;;;;;5015913;28;20061;-67
2022/01/12 04:57:48;;;;;;;46.67;21.65;;;-0.80;99.90;;;;;;5030683;28;20045;-66
2022/01/12 05:00:18;;;;;;;44.00;18.48;;;-0.80;99.90;;;;;;5030034;28;20044;-68
2022/01/12 05:13:48;;;;;;;44.50;20.90;;;-0.80;99.90;;;;;;5023631;28;20060;-66
2022/01/12 05:16:17;;;;;;;44.60;19.83;;;-0.80;99.90;;;;;;5029503;28;20627;-66
2022/01/12 05:18:47;;;;;;;47.77;20.63;;;-0.80;99.90;;;;;;5030376;28;20370;-66
2022/01/12 05:21:17;;;;;;;;;;;-0.80;99.90;;;;;;5030603;28;20054;-66
2022/01/12 05:23:44;;;;;;;;;;;-0.80;99.90;;;;;;5031662;28;19921;-66
2022/01/12 05:26:12;;;;;;;40.22;17.45;;;-0.80;99.90;;;;;;5011754;28;19925;-66
2022/01/12 05:28:40;;;;;;;48.53;20.20;;;-0.80;99.90;;;;;;5030998;28;20060;-66
2022/01/12 05:31:12;;;;;;;48.33;19.52;;;-0.80;99.90;;;;;;5029924;28;20050;-66
2022/01/12 05:33:46;;;;;;;41.78;18.70;;;-0.80;99.90;;;;;;5007110;28;20054;-66
2022/01/12 05:36:17;;;;;;;40.45;18.67;;;-0.80;99.90;;;;;;5014027;28;20033;-66
2022/01/12 05:38:53;;;;;;;45.53;18.35;;;-0.80;99.90;;;;;;5029273;28;20042;-66
2022/01/12 05:41:21;;;;;;;38.55;17.23;;;-0.80;99.90;;;;;;5029647;28;20029;-66
2022/01/12 05:43:50;;;;;;;44.33;19.63;;;-0.80;99.90;;;;;;5021486;28;20437;-67
2022/01/12 05:46:22;;;;;;;42.92;19.58;;;-0.80;99.90;;;;;;5061035;28;20386;-66
2022/01/12 05:51:45;;;;;;;44.47;19.23;;;-0.80;99.90;;;;;;5014036;28;20401;-67
2022/01/12 05:54:14;;;;;;;41.83;18.10;;;-0.80;99.90;;;;;;5026552;28;20057;-66
2022/01/12 05:56:42;;;;;;;35.38;17.67;;;-0.80;99.90;;;;;;5022603;28;20049;-67
2022/01/12 05:59:10;;;;;;;43.42;18.13;;;-0.80;99.90;;;;;;5026166;28;20056;-67
2022/01/12 06:01:38;;;;;;;38.88;17.65;;;-0.80;99.90;;;;;;5008993;28;20048;-67
2022/01/12 06:04:06;;;;;;;45.88;17.65;;;-0.80;99.90;;;;;;5017967;28;20049;-67
2022/01/12 06:06:34;;;;;;;47.05;19.08;;;-0.80;99.90;;;;;;5023386;28;20046;-66
2022/01/12 06:09:02;;;;;;;44.03;19.38;;;-0.80;99.90;;;;;;5023256;28;20508;-69
2022/01/12 06:11:30;;;;;;;44.08;18.90;;;-0.80;99.90;;;;;;5022790;28;20037;-67
2022/01/12 06:13:59;;;;;;;46.35;19.45;;;-0.80;99.90;;;;;;5023086;28;20060;-66
2022/01/12 06:16:30;;;;;;;45.33;19.70;;;-0.70;99.90;;;;;;5007662;28;20034;-69
2022/01/12 06:18:58;;;;;;;40.75;18.75;;;-0.80;99.90;;;;;;5009817;28;20050;-71
2022/01/12 06:21:29;;;;;;;41.45;17.48;;;-0.80;99.90;;;;;;5019399;28;20042;-67
2022/01/12 06:24:02;;;;;;;40.67;18.83;;;-0.70;99.90;;;;;;5025002;28;20413;-66
2022/01/12 06:26:29;;;;;;;40.33;18.25;;;-0.70;99.90;;;;;;5023078;28;20053;-66
2022/01/12 06:31:43;;;;;;;46.13;19.08;;;-0.70;99.90;;;;;;5022906;28;20041;-67
2022/01/12 06:34:11;;;;;;;40.38;19.38;;;-0.70;99.90;;;;;;5037285;28;20062;-66
2022/01/12 06:36:39;;;;;;;38.40;17.33;;;-0.70;99.90;;;;;;5016633;28;20414;-67
2022/01/12 06:39:10;;;;;;;34.63;17.73;;;-0.60;99.90;;;;;;5020378;28;20493;-67
2022/01/12 06:41:39;;;;;;;43.15;18.60;;;-0.60;99.90;;;;;;5021845;28;20042;-66
2022/01/12 06:44:08;;;;;;;46.53;20.00;;;-0.60;99.90;;;;;;5055419;28;20050;-66
2022/01/12 06:46:38;;;;;;;37.80;18.20;;;-0.60;99.90;;;;;;5037736;28;20045;-67
2022/01/12 06:49:07;;;;;;;44.60;19.27;;;-0.60;99.90;;;;;;5054680;28;20092;-67
2022/01/12 06:51:36;;;;;;;39.78;18.42;;;-0.50;99.90;;;;;;5006454;28;20056;-67
2022/01/12 06:54:04;;;;;;;39.78;18.58;;;-0.50;99.90;;;;;;4997001;28;20050;-66
2022/01/12 06:56:32;;;;;;;41.78;18.40;;;-0.50;99.90;;;;;;5010092;28;20056;-67
2022/01/12 06:59:01;;;;;;;40.10;16.50;;;-0.50;99.90;;;;;;5055489;28;20056;-66
2022/01/12 07:01:31;;;;;;;40.42;18.77;;;-0.50;99.90;;;;;;5006769;28;20370;-69
2022/01/12 07:03:59;;;;;;;37.13;17.73;;;-0.60;99.90;;;;;;5025887;28;20053;-67
2022/01/12 07:06:27;;;;;;;36.55;17.00;;;-0.60;99.90;;;;;;5027006;28;20053;-67
2022/01/12 07:08:55;;;;;;;43.35;19.45;;;-0.60;99.90;;;;;;5027418;28;20616;-66
2022/01/12 07:11:48;;;;;;;45.78;17.08;;;-0.50;99.90;;;;;;5028632;28;20049;-67
2022/01/12 07:14:21;;;;;;;35.03;16.92;;;-0.50;99.90;;;;;;5028211;28;20056;-66
2022/01/12 07:16:49;;;;;;;39.30;17.13;;;-0.50;99.90;;;;;;5028302;28;20037;-67
2022/01/12 07:19:17;;;;;;;36.55;16.95;;;-0.60;99.90;;;;;;4999284;28;20054;-67
2022/01/12 07:21:45;;;;;;;39.22;16.38;;;-0.60;99.90;;;;;;5011620;28;20385;-67
2022/01/12 07:24:13;;;;;;;46.67;17.20;;;-0.60;99.90;;;;;;5028079;28;20056;-66
2022/01/12 07:26:41;;;;;;;43.45;18.77;;;-0.60;99.90;;;;;;5029302;28;20041;-69
2022/01/12 07:29:11;;;;;;;47.97;18.42;;;-0.60;99.90;;;;;;5025723;28;20042;-67
2022/01/12 07:31:38;;;;;;;41.17;18.17;;;-0.70;99.90;;;;;;5029577;28;20530;-67
2022/01/12 07:34:06;;;;;;;41.65;19.90;;;-0.70;99.90;;;;;;5024690;28;20060;-67
2022/01/12 07:36:33;;;;;;;43.70;19.40;;;-0.70;99.90;;;;;;5026892;28;20060;-69
2022/01/12 07:39:01;;;;;;;43.20;20.33;;;-0.70;99.90;;;;;;5025970;28;20049;-69
2022/01/12 07:41:29;;;;;;;40.10;19.48;;;-0.70;99.90;;;;;;5030431;28;20045;-68
2022/01/12 07:43:57;;;;;;;37.53;17.55;;;-0.70;99.90;;;;;;5030394;28;20049;-68
2022/01/12 07:46:24;;;;;;;36.28;17.00;;;-0.70;99.90;;;;;;5029079;28;20049;-67
2022/01/12 07:48:52;;;;;;;39.42;17.45;;;-0.60;99.90;;;;;;5018703;28;20509;-67
2022/01/12 07:51:20;;;;;;;42.75;19.25;;;-0.70;99.90;;;;;;5024905;28;20045;-67
2022/01/12 07:53:47;;;;;;;36.33;17.55;;;-0.70;99.90;;;;;;5029819;28;20121;-66
2022/01/12 07:56:15;;;;;;;41.28;18.45;;;-0.70;99.90;;;;;;5030312;28;20048;-67
2022/01/12 07:58:43;;;;;;;45.28;19.75;;;-0.70;99.90;;;;;;5029801;28;20060;-66
2022/01/12 08:01:12;;;;;;;34.80;17.67;;;-0.70;99.90;;;;;;5030206;28;20056;-66
2022/01/12 08:03:40;;;;;;;;;;;-0.70;99.90;;;;;;5022850;28;20623;-66
2022/01/12 08:06:07;;;;;;;38.03;18.30;;;-0.70;99.90;;;;;;5013175;28;19932;-67
2022/01/12 08:08:35;;;;;;;43.92;18.13;;;-0.70;99.90;;;;;;5030156;28;20411;-68
2022/01/12 08:11:03;;;;;;;42.67;18.02;;;-0.70;99.90;;;;;;5024232;28;20417;-68
2022/01/12 08:13:31;;;;;;;38.75;17.75;;;-0.70;99.90;;;;;;5022753;28;20053;-67
2022/01/12 08:15:58;;;;;;;45.08;18.45;;;-0.70;99.90;;;;;;5030071;28;20041;-68
2022/01/12 08:18:26;;;;;;;42.13;19.13;;;-0.70;99.90;;;;;;5027563;28;20064;-67
2022/01/12 08:20:54;;;;;;;39.67;17.48;;;-0.70;99.90;;;;;;5010203;28;20503;-67
2022/01/12 08:23:21;;;;;;;49.85;19.77;;;-0.70;99.90;;;;;;5028633;28;20049;-68
2022/01/12 08:25:49;;;;;;;37.85;17.88;;;-0.70;99.90;;;;;;4995391;28;20073;-67
2022/01/12 08:28:17;;;;;;;42.92;18.42;;;-0.70;99.90;;;;;;5028283;28;20056;-67
2022/01/12 08:30:44;;;;;;;39.35;19.10;;;-0.70;99.90;;;;;;5029462;28;20053;-66
2022/01/12 08:33:12;;;;;;;48.47;19.25;;;-0.70;99.90;;;;;;5027853;28;20083;-66
2022/01/12 08:35:40;;;;;;;50.15;19.30;;;-0.60;99.90;;;;;;5007729;28;20038;-66
2022/01/12 08:38:08;;;;;;;39.22;19.23;;;-0.60;99.90;;;;;;5014693;28;20049;-66
2022/01/12 08:40:38;;;;;;;40.42;20.23;;;-0.60;99.90;;;;;;5025308;28;20049;-66
2022/01/12 08:43:06;;;;;;;46.55;22.42;;;-0.60;99.90;;;;;;5025057;28;20045;-66
2022/01/12 08:45:34;;;;;;;52.47;21.27;;;-0.50;99.90;;;;;;5008974;28;20049;-66
2022/01/12 08:48:01;;;;;;;44.92;20.05;;;-0.50;99.90;;;;;;5025755;28;20056;-66
2022/01/12 08:50:29;;;;;;;43.65;19.33;;;-0.40;99.90;;;;;;5009446;28;20485;-67
2022/01/12 08:53:02;;;;;;;51.08;21.65;;;-0.40;99.90;;;;;;5007886;28;20049;-68
2022/01/12 08:55:31;;;;;;;42.33;20.08;;;-0.40;99.90;;;;;;5006273;28;20060;-68
2022/01/12 08:57:58;;;;;;;47.15;20.25;;;-0.30;99.90;;;;;;5023698;28;20064;-67
2022/01/12 09:00:27;;;;;;;43.53;19.60;;;-0.30;99.90;;;;;;5024670;28;20060;-68
2022/01/12 09:02:54;;;;;;;39.97;19.02;;;-0.20;99.90;;;;;;5024050;28;20049;-68
2022/01/12 09:05:23;;;;;;;45.83;19.02;;;-0.20;99.90;;;;;;5011023;28;20058;-67
2022/01/12 09:07:52;;;;;;;52.10;21.23;;;-0.10;99.90;;;;;;4996451;28;20052;-64
2022/01/12 09:10:22;;;;;;;52.40;20.08;;;-0.10;99.90;;;;;;5023777;28;20041;-70
2022/01/12 09:12:50;;;;;;;47.80;19.63;;;0.00;99.90;;;;;;5026937;28;20033;-66
2022/01/12 09:15:22;;;;;;;53.58;23.17;;;0.00;99.90;;;;;;5009102;28;20516;-66
2022/01/12 09:17:50;;;;;;;60.85;22.88;;;0.00;99.90;;;;;;5025357;28;20045;-66
2022/01/12 09:20:18;;;;;;;46.08;21.10;;;0.00;99.90;;;;;;5014973;28;20058;-66
2022/01/12 09:22:46;;;;;;;60.15;21.98;;;0.10;99.90;;;;;;5015781;28;20378;-65
2022/01/12 09:25:14;;;;;;;52.53;21.95;;;0.10;99.90;;;;;;5027661;28;20049;-66
2022/01/12 09:27:42;;;;;;;49.72;23.52;;;0.20;99.90;;;;;;5026637;28;20081;-65
2022/01/12 09:30:13;;;;;;;46.58;21.50;;;0.20;99.90;;;;;;5026869;28;20533;-67
2022/01/12 09:32:41;;;;;;;56.20;23.02;;;0.30;99.90;;;;;;5028645;28;20417;-65
2022/01/12 09:35:14;;;;;;;53.92;24.60;;;0.30;99.90;;;;;;5026016;28;20060;-66
2022/01/12 09:37:43;;;;;;;51.10;24.15;;;0.30;99.90;;;;;;5023525;28;20052;-67
2022/01/12 09:40:11;;;;;;;62.03;24.05;;;0.40;99.90;;;;;;5027825;28;20125;-67
2022/01/12 09:42:49;;;;;;;54.38;22.60;;;0.50;99.90;;;;;;5027096;28;20444;-67
2022/01/12 09:45:18;;;;;;;57.70;23.80;;;0.50;99.90;;;;;;5028203;28;20060;-67
2022/01/12 09:47:47;;;;;;;;;;;0.60;99.90;;;;;;5010977;28;20056;-67
2022/01/12 09:50:18;;;;;;;42.20;20.80;;;0.60;99.90;;;;;;5016675;28;19930;-67
2022/01/12 09:52:46;;;;;;;47.78;22.63;;;0.60;99.90;;;;;;5014796;28;20038;-68
2022/01/12 09:55:14;;;;;;;56.17;23.58;;;0.70;99.90;;;;;;5027162;28;20053;-68
2022/01/12 09:57:41;;;;;;;52.22;24.48;;;0.70;99.90;;;;;;5028143;28;20050;-66
2022/01/12 10:00:11;;;;;;;128.25;51.20;;;0.80;99.90;;;;;;5028075;28;20053;-66
2022/01/12 10:02:42;;;;;;;166.13;68.95;;;0.80;99.90;;;;;;5024562;28;20049;-67
2022/01/12 10:05:10;;;;;;;108.63;45.35;;;0.90;99.90;;;;;;5017076;28;20579;-66
2022/01/12 10:07:38;;;;;;;69.72;29.42;;;1.00;99.90;;;;;;5023728;28;20068;-68
2022/01/12 10:10:09;;;;;;;58.22;26.23;;;1.10;99.90;;;;;;5025673;28;20056;-67
2022/01/12 10:12:39;;;;;;;62.28;25.52;;;1.20;99.90;;;;;;5028142;28;20042;-68
2022/01/12 10:15:10;;;;;;;48.92;24.27;;;1.20;99.90;;;;;;5027135;28;20049;-69
2022/01/12 10:17:44;;;;;;;61.05;25.63;;;1.30;99.90;;;;;;5027753;28;20046;-67
2022/01/12 10:20:19;;;;;;;57.47;26.52;;;1.40;99.90;;;;;;5015222;28;20046;-67
2022/01/12 10:23:06;;;;;;;63.00;29.05;;;1.50;99.90;;;;;;5010371;28;20041;-66
2022/01/12 10:25:35;;;;;;;61.88;27.38;;;1.60;99.90;;;;;;5027154;28;20064;-67
2022/01/12 10:28:13;;;;;;;65.53;27.00;;;1.70;99.90;;;;;;5060154;28;20064;-67
2022/01/12 10:30:52;;;;;;;55.80;24.33;;;1.80;99.90;;;;;;5027896;28;20058;-68
2022/01/12 10:33:22;;;;;;;;;;;1.90;99.90;;;;;;5026196;28;20045;-67
2022/01/12 10:35:56;;;;;;;51.45;21.23;;;2.00;99.90;;;;;;5012910;28;20292;-67
2022/01/12 10:38:24;;;;;;;42.13;22.85;;;2.10;99.90;;;;;;5023918;28;20408;-66
2022/01/12 10:41:01;;;;;;;53.60;23.15;;;2.10;99.90;;;;;;5029055;28;20076;-66
2022/01/12 10:43:43;;;;;;;63.78;26.13;;;2.30;99.90;;;;;;5028447;28;20046;-65
2022/01/12 10:46:17;;;;;;;44.03;23.10;;;2.30;99.90;;;;;;5028525;28;20052;-67
2022/01/12 10:48:52;;;;;;;50.53;22.15;;;2.40;99.90;;;;;;5029231;28;20041;-66
2022/01/12 10:51:26;;;;;;;50.28;23.02;;;2.50;99.90;;;;;;5022968;28;20037;-66
2022/01/12 10:54:00;;;;;;;45.60;22.85;;;2.60;99.90;;;;;;5031017;28;20045;-66
2022/01/12 10:56:28;;;;;;;48.75;22.50;;;2.70;99.90;;;;;;5029866;28;20104;-65
2022/01/12 10:58:57;;;;;;;50.17;23.95;;;2.80;99.90;;;;;;5031116;28;20615;-66
2022/01/12 11:01:28;;;;;;;51.90;23.15;;;3.00;99.90;;;;;;5013635;28;20045;-66
2022/01/12 11:03:56;;;;;;;49.17;22.33;;;3.10;99.90;;;;;;5030755;28;20049;-67
2022/01/12 11:06:25;;;;;;;42.47;19.67;;;3.20;99.90;;;;;;5013244;28;20057;-66
2022/01/12 11:08:55;;;;;;;40.42;18.40;;;3.40;99.90;;;;;;5024829;28;20042;-66
2022/01/12 11:11:25;;;;;;;39.38;20.05;;;3.50;99.90;;;;;;5027741;28;20053;-66
2022/01/12 11:13:55;;;;;;;39.60;19.05;;;3.70;99.90;;;;;;5027077;28;20049;-66
2022/01/12 11:16:27;;;;;;;35.70;17.48;;;3.80;99.90;;;;;;5027293;28;20401;-67
2022/01/12 11:18:57;;;;;;;30.05;15.43;;;4.00;99.90;;;;;;5025636;28;20487;-67
2022/01/12 11:21:41;;;;;;;29.00;14.80;;;4.20;99.90;;;;;;5012781;28;20050;-67
2022/01/12 11:24:15;;;;;;;26.25;9.23;;;4.40;99.90;;;;;;5027033;28;20045;-67
2022/01/12 11:26:48;;;;;;;17.80;6.60;;;4.60;99.90;;;;;;5029608;28;20053;-67
2022/01/12 11:29:35;;;;;;;15.30;4.28;;;4.90;99.90;;;;;;5028299;28;20042;-66
2022/01/12 11:32:07;;;;;;;18.15;3.67;;;5.20;99.90;;;;;;5027132;28;20515;-65
2022/01/12 11:34:35;;;;;;;14.75;3.90;;;5.40;99.90;;;;;;5024785;28;20049;-65
2022/01/12 11:37:14;;;;;;;18.80;4.68;;;5.70;99.90;;;;;;5027312;28;20412;-66
2022/01/12 11:39:42;;;;;;;9.80;3.25;;;5.90;99.90;;;;;;5030636;28;20627;-66
2022/01/12 11:42:10;;;;;;;14.52;3.58;;;6.20;99.90;;;;;;5030164;28;20049;-65
2022/01/12 11:44:38;;;;;;;17.13;3.50;;;6.40;99.90;;;;;;5030322;28;20060;-65
2022/01/12 11:47:12;;;;;;;19.23;3.65;;;6.70;99.90;;;;;;5030080;28;20686;-67
2022/01/12 11:49:44;;;;;;;13.95;3.30;;;6.90;99.90;;;;;;5013439;28;20045;-65
2022/01/12 11:52:18;;;;;;;13.98;3.17;;;7.20;99.90;;;;;;5012138;28;20044;-66
2022/01/12 11:54:47;;;;;;;13.30;3.33;;;7.30;99.90;;;;;;5030462;28;20393;-66
2022/01/12 11:57:19;;;;;;;13.02;3.35;;;7.40;99.90;;;;;;5029177;28;20053;-68
2022/01/12 12:00:02;;;;;;;12.75;2.70;;;7.60;99.90;;;;;;5030130;28;20041;-66
2022/01/12 12:02:41;;;;;;;18.30;3.05;;;7.90;99.90;;;;;;5029803;28;20046;-65
2022/01/12 12:05:15;;;;;;;11.73;3.50;;;8.20;99.90;;;;;;5025723;28;20497;-65
2022/01/12 12:07:48;;;;;;;12.30;4.97;;;8.50;99.90;;;;;;5025961;28;20052;-66
2022/01/12 12:10:22;;;;;;;12.82;3.10;;;8.80;99.90;;;;;;5028795;28;20060;-69
2022/01/12 12:12:51;;;;;;;17.08;4.53;;;9.10;99.90;;;;;;5028835;28;20042;-65
2022/01/12 12:15:21;;;;;;;16.10;3.90;;;9.30;99.90;;;;;;5029595;28;20485;-65
2022/01/12 12:17:49;;;;;;;17.33;2.70;;;9.50;99.90;;;;;;5029709;28;20504;-66
2022/01/12 12:20:19;;;;;;;10.48;2.78;;;9.80;99.90;;;;;;5025731;28;20409;-68
2022/01/12 12:22:48;;;;;;;7.45;2.30;;;10.10;99.90;;;;;;5015591;28;20056;-67
2022/01/12 12:25:17;;;;;;;11.43;2.33;;;10.40;99.90;;;;;;5029107;28;20050;-68
2022/01/12 12:27:57;;;;;;;12.88;4.22;;;10.60;99.90;;;;;;5029640;28;20068;-65
2022/01/12 12:30:26;;;;;;;14.02;2.67;;;10.90;99.90;;;;;;5025439;28;20481;-67
2022/01/12 12:33:16;;;;;;;10.82;2.33;;;11.00;99.90;;;;;;5024564;28;20057;-67
2022/01/12 12:35:45;;;;;;;13.32;4.57;;;11.20;99.90;;;;;;5019261;28;20225;-68
2022/01/12 12:38:14;;;;;;;11.05;3.47;;;11.30;99.90;;;;;;5016740;28;20044;-67
2022/01/12 12:40:50;;;;;;;10.00;2.60;;;11.40;99.90;;;;;;5029532;28;20144;-67
2022/01/12 12:43:26;;;;;;;10.13;2.20;;;11.60;99.90;;;;;;5027224;28;20042;-66
2022/01/12 12:46:00;;;;;;;10.60;2.30;;;11.80;99.90;;;;;;5029125;28;20057;-66
2022/01/12 12:48:31;;;;;;;12.70;2.65;;;11.90;99.90;;;;;;5029162;28;20049;-65
2022/01/12 12:51:14;;;;;;;9.90;2.20;;;12.10;99.90;;;;;;5021409;28;20030;-67
2022/01/12 12:53:47;;;;;;;7.70;1.70;;;12.30;99.90;;;;;;5028142;28;20042;-66
2022/01/12 12:56:20;;;;;;;9.45;1.70;;;12.50;99.90;;;;;;5025035;28;20060;-67
2022/01/12 12:58:49;;;;;;;9.18;2.17;;;12.70;99.90;;;;;;5015361;28;20041;-66
2022/01/12 13:01:19;;;;;;;8.80;2.53;;;12.70;99.90;;;;;;5024625;28;20049;-66
2022/01/12 13:03:50;;;;;;;9.80;2.17;;;12.90;99.90;;;;;;5027151;28;20067;-66
2022/01/12 13:06:29;;;;;;;8.90;2.65;;;13.10;99.90;;;;;;5023814;28;20061;-66
2022/01/12 13:09:04;;;;;;;6.90;1.80;;;13.10;99.90;;;;;;5025397;28;20523;-66
2022/01/12 13:11:37;;;;;;;8.68;1.88;;;13.20;99.90;;;;;;5010853;28;20064;-65
2022/01/12 13:14:07;;;;;;;11.52;2.72;;;13.20;99.90;;;;;;5023826;28;20064;-67
2022/01/12 13:16:42;;;;;;;;;;;13.30;99.90;;;;;;5027341;28;20562;-65
2022/01/12 13:19:22;;;;;;;12.18;1.73;;;13.50;99.90;;;;;;5018125;28;20468;-66
2022/01/12 13:21:49;;;;;;;13.45;2.97;;;13.70;99.90;;;;;;5013127;28;20042;-66
2022/01/12 13:24:17;;;;;;;11.00;2.22;;;13.80;99.90;;;;;;5025892;28;20049;-66
2022/01/12 13:26:45;;;;;;;6.35;2.83;;;13.90;99.90;;;;;;5025098;28;20042;-66
2022/01/12 13:29:13;;;;;;;10.32;4.00;;;14.00;99.90;;;;;;5023374;28;20053;-67
2022/01/12 13:31:45;;;;;;;9.95;2.03;;;14.00;99.90;;;;;;5023897;28;20524;-66
2022/01/12 13:34:15;;;;;;;10.40;3.47;;;14.10;99.90;;;;;;5023578;28;20064;-66
2022/01/12 13:36:50;;;;;;;13.52;4.05;;;14.40;99.90;;;;;;5018398;28;20053;-66
2022/01/12 13:39:19;;;;;;;12.27;2.80;;;14.70;99.90;;;;;;5022423;28;20515;-66
2022/01/12 13:41:51;;;;;;;11.10;3.40;;;14.80;99.90;;;;;;5016032;28;20050;-66
2022/01/12 13:44:20;;;;;;;14.30;2.15;;;14.80;99.90;;;;;;5023904;28;20057;-66
2022/01/12 13:47:23;;;;;;;11.75;2.63;;;14.80;99.90;;;;;;5025198;28;20056;-67
2022/01/12 13:50:03;;;;;;;11.13;2.47;;;14.80;99.90;;;;;;5024494;28;20137;-69
2022/01/12 13:52:31;;;;;;;9.55;1.90;;;14.80;99.90;;;;;;5022747;28;20049;-67
2022/01/12 13:55:09;;;;;;;11.23;2.00;;;14.80;99.90;;;;;;5021492;28;20063;-65
2022/01/12 13:57:40;;;;;;;7.13;2.20;;;14.90;99.90;;;;;;5002324;28;20037;-68
2022/01/12 14:00:19;;;;;;;7.03;2.15;;;15.00;99.90;;;;;;5026315;28;20045;-65
2022/01/12 14:02:49;;;;;;;8.35;2.42;;;15.10;99.90;;;;;;5012794;28;20029;-65
2022/01/12 14:05:19;;;;;;;9.98;2.63;;;15.30;99.90;;;;;;5023750;28;20052;-68
2022/01/12 14:07:59;;;;;;;7.03;2.00;;;15.50;99.90;;;;;;5023807;28;20049;-65
2022/01/12 14:10:32;;;;;;;14.23;2.28;;;15.90;99.50;;;;;;5024405;28;20061;-67
2022/01/12 14:13:00;;;;;;;4.55;2.00;;;16.00;97.10;;;;;;5030516;28;20054;-68
2022/01/12 14:15:30;;;;;;;9.27;2.20;;;15.70;94.70;;;;;;5030597;28;20049;-70
2022/01/12 14:17:59;;;;;;;;;;;15.00;94.40;;;;;;5031395;28;20041;-69
2022/01/12 14:20:37;;;;;;;9.88;2.40;;;14.30;94.60;;;;;;5031472;28;19921;-65
2022/01/12 14:23:07;;;;;;;7.60;2.13;;;13.40;95.10;;;;;;5031288;28;20064;-66
2022/01/12 14:25:43;;;;;;;4.97;1.60;;;12.70;96.60;;;;;;5030914;28;20053;-65
2022/01/12 14:28:14;;;;;;;7.75;1.55;;;11.90;98.20;;;;;;5030463;28;20041;-65